Aérodrome :
LOGIN :

S'inscrire | Disclaimer

   EN    FR    IT 

 










Légende :    VFR   VFR Marginal   IFR   IFR Intensif   IFR Très Intensif
Visi : 
Plafond : 
>= 8 km
>= 3000ft
5 à 8 km
1000 à 3000 ft
1500m à 5 km
500 à 1000 ft
800 à 1500m
200 à 500 ft
< 800m
< 200 ft
Symboles :   Orages  Brouillard  Fortes neiges  Fortes précipitations  Vent > 20 kt
SIGMETs :   Divers  Orages  Givrage  Turbulence  Onde Orograph.  Cendres Volcan.






- Altitude de l'aérodrome : 587 ft
- Code IATA : XCR


LFOK - Chalons Vatry

DERNIER METAR :
  • 100500Z AUTO 22005KT 190V250 CAVOK M01/M02 Q1028 NOSIG

METARs EXPIRÉS :
  • 100430Z AUTO 24005KT CAVOK M00/M01 Q1027 NOSIG
  • 100400Z AUTO 24005KT CAVOK 00/M00 Q1027 NOSIG
  • 100330Z AUTO 22005KT CAVOK M00/M01 Q1027 NOSIG
  • 100300Z AUTO 26007KT CAVOK M00/M01 Q1027 NOSIG
  • 100230Z AUTO 27007KT 9999 FEW040 01/M01 Q1027 NOSIG

TAF TAF LFOK
Valide du 10 à 00h jusqu'au 11 à 00h UTC


092300Z 1000/1024 32012KT CAVOK
BECMG 1001/1004 VRB03KT
BECMG 1008/1011 18013KT
TEMPO 1022/1024 18015G25KT



MET'MAP, la Météo Aéronautique d'un coup d'oeil ! - Copyright ORBIFLY Décembre 2007 - Disclaimer

ORBIFLY MET'MAP TEAM :

Programmation & Développement : Alexandra Zaïnal
Sur une idée originale de : Baudouin d'Aumeries
Assistance à la programmation : Marc-Olivier Méhu
Soutien technique & logistique : Manuel Goepfert

Contact : metmap@orbifly.com




SOURCES & CREDITS :

   NOAA